KLOU/LOU METAR and TAF weather

Enter ICAO airport designator
Station Type Date Time Source
KLOU METAR 2021/04/13 06:53 UTC NOAA

KLOU 130653Z AUTO 00000KT 10SM SCT110 11/06 A3004 RMK AO2 SLP169 T01110061


Station Type Date Time Source
KLOU Decoded METAR 2021/04/13 06:53 UTC NOAA

BOWMAN FIELD, KY, United States (KLOU) 38-14N 085-40W 164M
Apr 13, 2021 - 02:53 AM EDT / 2021.04.13 0653 UTC
Wind: Calm:0
Visibility: 10 mile(s):0
Sky conditions: partly cloudy
Temperature: 52.0 F (11.1 C)
Dew Point: 43.0 F (6.1 C)
Relative Humidity: 71%
Pressure (altimeter): 30.04 in. Hg (1017 hPa)
ob: KLOU 130653Z AUTO 00000KT 10SM SCT110 11/06 A3004 RMK AO2 SLP169 T01110061
cycle: 7

Station Type Date Time Source
KLOU TAF UTC NOAA

Error!

Example: see airport list